createdAt,value
2022-10-18T00:01:32.661Z,16.87
2022-10-18T00:04:00.592Z,14.30
2022-10-18T00:06:28.497Z,17.67
2022-10-18T00:08:56.317Z,17.23
2022-10-18T00:11:23.796Z,17.33
2022-10-18T00:13:51.690Z,14.80
2022-10-18T00:16:20.495Z,16.43
2022-10-18T00:18:48.925Z,18.97
2022-10-18T00:21:17.648Z,12.30
2022-10-18T00:23:45.775Z,15.10
2022-10-18T00:26:14.457Z,13.33
2022-10-18T00:28:42.588Z,15.43
2022-10-18T00:31:14.176Z,22.70
2022-10-18T00:33:43.833Z,17.13
2022-10-18T00:36:12.133Z,22.20
2022-10-18T00:38:40.119Z,17.50
2022-10-18T00:41:08.643Z,16.27
2022-10-18T00:43:51.050Z,12.70
2022-10-18T00:46:18.812Z,15.90
2022-10-18T00:48:47.939Z,22.23
2022-10-18T00:51:16.197Z,25.30
2022-10-18T00:53:44.049Z,22.30
2022-10-18T00:56:12.154Z,14.03
2022-10-18T00:58:40.013Z,12.10
2022-10-18T01:01:08.107Z,26.13
2022-10-18T01:03:36.236Z,12.30
2022-10-18T01:06:05.639Z,12.17
2022-10-18T01:08:38.316Z,13.50
2022-10-18T01:11:13.374Z,18.73
2022-10-18T01:13:47.671Z,15.70
2022-10-18T01:16:19.106Z,12.90
2022-10-18T01:18:49.647Z,18.13
2022-10-18T01:21:23.225Z,13.30
2022-10-18T01:24:05.808Z,15.10
2022-10-18T01:26:39.953Z,14.50
2022-10-18T01:29:15.638Z,14.70
2022-10-18T01:31:46.236Z,16.23
2022-10-18T01:34:15.904Z,14.30
2022-10-18T01:36:45.022Z,23.33
2022-10-18T01:39:14.383Z,19.23
2022-10-18T01:41:42.793Z,18.77
2022-10-18T01:44:12.045Z,17.90
2022-10-18T01:46:40.792Z,16.20
2022-10-18T01:49:09.637Z,16.23
2022-10-18T01:51:37.427Z,16.03
2022-10-18T01:54:05.439Z,18.03
2022-10-18T01:56:37.910Z,16.40
2022-10-18T01:59:15.119Z,17.10
2022-10-18T02:01:47.397Z,18.00
2022-10-18T02:04:21.377Z,15.57
2022-10-18T02:06:50.591Z,15.70
2022-10-18T02:09:19.961Z,15.90
2022-10-18T02:11:48.906Z,17.77
2022-10-18T02:14:17.324Z,16.80
2022-10-18T02:16:46.427Z,17.77
2022-10-18T02:19:16.166Z,15.90
2022-10-18T02:21:46.886Z,17.50
2022-10-18T02:24:15.117Z,19.70
2022-10-18T02:26:43.013Z,16.37
2022-10-18T02:29:10.788Z,18.07
2022-10-18T02:31:40.789Z,16.10
2022-10-18T02:34:12.014Z,15.80
2022-10-18T02:36:41.668Z,16.60
2022-10-18T02:39:14.442Z,15.60
2022-10-18T02:41:42.496Z,19.30
2022-10-18T02:44:10.043Z,17.23
2022-10-18T02:46:38.234Z,15.70
2022-10-18T02:49:05.748Z,16.10
2022-10-18T02:51:34.493Z,15.17
2022-10-18T02:54:03.257Z,17.40
2022-10-18T02:56:32.228Z,14.60
2022-10-18T02:58:59.679Z,18.10
2022-10-18T03:01:27.478Z,16.93
2022-10-18T03:03:54.970Z,16.17
2022-10-18T03:06:22.671Z,15.10
2022-10-18T03:08:50.262Z,15.73
2022-10-18T03:11:17.782Z,17.50
2022-10-18T03:13:46.535Z,17.57
2022-10-18T03:16:14.371Z,16.37
2022-10-18T03:18:41.842Z,17.00
2022-10-18T03:21:09.898Z,16.40
2022-10-18T03:23:37.819Z,16.43
2022-10-18T03:26:05.527Z,19.10
2022-10-18T03:28:33.301Z,18.67
2022-10-18T03:31:03.400Z,18.87
2022-10-18T03:33:32.051Z,19.73
2022-10-18T03:35:59.594Z,19.33
2022-10-18T03:38:27.645Z,19.50
2022-10-18T03:40:55.294Z,19.33
2022-10-18T03:43:22.883Z,20.80
2022-10-18T03:45:50.964Z,20.27
2022-10-18T03:48:19.819Z,20.73
2022-10-18T03:50:48.502Z,19.20
2022-10-18T03:53:16.231Z,19.97
2022-10-18T03:55:43.820Z,18.63
2022-10-18T03:58:11.347Z,20.27
2022-10-18T04:00:38.888Z,18.90
2022-10-18T04:03:06.482Z,20.57
2022-10-18T04:05:36.511Z,20.80
2022-10-18T04:08:04.656Z,21.30
2022-10-18T04:10:32.178Z,20.90
2022-10-18T04:12:59.984Z,21.73
2022-10-18T04:15:27.528Z,20.13
2022-10-18T04:17:55.417Z,19.40
2022-10-18T04:20:23.656Z,20.67
2022-10-18T04:22:54.861Z,19.80
2022-10-18T04:25:23.091Z,20.13
2022-10-18T04:27:50.634Z,19.97
2022-10-18T04:30:18.434Z,21.23
2022-10-18T04:32:45.894Z,19.57
2022-10-18T04:35:13.661Z,18.23
2022-10-18T04:37:41.253Z,18.27
2022-10-18T04:40:11.557Z,18.37
2022-10-18T04:42:39.016Z,18.80
2022-10-18T04:45:07.050Z,18.03
2022-10-18T04:47:35.301Z,18.40
2022-10-18T04:50:02.919Z,18.60
2022-10-18T04:52:30.427Z,18.13
2022-10-18T04:54:58.050Z,18.20
2022-10-18T04:57:26.949Z,18.97
2022-10-18T04:59:54.489Z,18.60
2022-10-18T05:02:22.349Z,17.93
2022-10-18T05:04:49.788Z,18.90
2022-10-18T05:07:17.389Z,19.00
2022-10-18T05:09:45.255Z,18.63
2022-10-18T05:12:13.460Z,18.03
2022-10-18T05:14:42.310Z,17.70
2022-10-18T05:17:10.003Z,18.83
2022-10-18T05:19:37.540Z,18.27
2022-10-18T05:22:05.805Z,18.70
2022-10-18T05:24:33.438Z,19.37
2022-10-18T05:27:01.037Z,20.60
2022-10-18T05:29:28.895Z,19.23
2022-10-18T05:31:57.873Z,19.70
2022-10-18T05:34:27.396Z,21.20
2022-10-18T05:36:54.938Z,21.33
2022-10-18T05:39:22.492Z,20.83
2022-10-18T05:41:50.471Z,20.57
2022-10-18T05:44:17.949Z,19.97
2022-10-18T05:46:45.547Z,20.60
2022-10-18T05:49:14.820Z,20.27
2022-10-18T05:51:42.484Z,20.00
2022-10-18T05:54:11.067Z,19.90
2022-10-18T05:59:12.388Z,20.20
2022-10-18T06:01:40.704Z,19.77
2022-10-18T06:04:08.475Z,22.60
2022-10-18T06:06:37.514Z,20.10
2022-10-18T06:09:05.666Z,21.27
2022-10-18T06:11:33.509Z,19.80
2022-10-18T06:14:01.786Z,20.93
2022-10-18T06:16:32.654Z,21.03
2022-10-18T06:19:00.707Z,21.70
2022-10-18T06:21:28.346Z,20.63
2022-10-18T06:23:58.987Z,21.10
2022-10-18T06:26:28.766Z,21.90
2022-10-18T06:28:56.297Z,20.50
2022-10-18T06:31:24.183Z,20.57
2022-10-18T06:33:51.827Z,19.07
2022-10-18T06:36:21.941Z,21.87
2022-10-18T06:38:50.054Z,20.77
2022-10-18T06:41:19.599Z,21.33
2022-10-18T06:43:49.231Z,21.70
2022-10-18T06:46:16.832Z,21.90
2022-10-18T06:48:44.538Z,21.50
2022-10-18T06:51:13.122Z,20.70
2022-10-18T06:53:44.609Z,18.20
2022-10-18T06:56:28.307Z,17.33
2022-10-18T06:58:55.888Z,17.07
2022-10-18T07:01:23.943Z,16.70
2022-10-18T07:03:53.945Z,16.90
2022-10-18T07:06:21.902Z,16.03
2022-10-18T07:08:50.045Z,16.33
2022-10-18T07:11:23.726Z,19.07
2022-10-18T07:13:53.961Z,21.30
2022-10-18T07:16:22.316Z,22.13
2022-10-18T07:18:51.181Z,24.90
2022-10-18T07:21:19.375Z,24.50
2022-10-18T07:23:47.225Z,28.00
2022-10-18T07:26:16.110Z,28.93
2022-10-18T07:28:44.346Z,29.63
2022-10-18T07:31:13.910Z,31.87
2022-10-18T07:33:43.131Z,29.87
2022-10-18T07:36:11.539Z,30.67
2022-10-18T07:38:39.310Z,29.90
2022-10-18T07:41:08.064Z,28.77
2022-10-18T07:43:35.992Z,22.43
2022-10-18T07:46:04.711Z,26.17
2022-10-18T07:48:34.027Z,23.43
2022-10-18T07:51:02.109Z,25.07
2022-10-18T07:53:30.046Z,26.57
2022-10-18T07:56:01.454Z,24.63
2022-10-18T07:58:32.039Z,20.37
2022-10-18T08:01:02.942Z,21.47
2022-10-18T08:03:30.480Z,21.20
2022-10-18T08:05:59.471Z,23.73
2022-10-18T08:08:27.579Z,22.97
2022-10-18T08:10:55.036Z,23.10
2022-10-18T08:13:22.909Z,22.63
2022-10-18T08:15:50.986Z,28.73
2022-10-18T08:18:18.559Z,50.20
2022-10-18T08:20:46.538Z,32.47
2022-10-18T08:23:15.469Z,45.87
2022-10-18T08:25:42.940Z,18.10
2022-10-18T08:28:10.642Z,32.57
2022-10-18T08:30:38.617Z,41.93
2022-10-18T08:33:06.155Z,51.03
2022-10-18T08:35:34.082Z,30.50
2022-10-18T08:38:02.180Z,37.27
2022-10-18T08:40:33.802Z,17.67
2022-10-18T08:43:08.037Z,31.03
2022-10-18T08:45:42.516Z,18.90
2022-10-18T08:48:17.123Z,26.73
2022-10-18T08:50:45.320Z,24.83
2022-10-18T08:53:15.975Z,42.80
2022-10-18T08:55:47.261Z,13.60
2022-10-18T08:58:16.777Z,11.83
2022-10-18T09:00:48.676Z,12.03
2022-10-18T09:03:22.484Z,12.00
2022-10-18T09:06:04.253Z,11.30
2022-10-18T09:08:42.904Z,14.03
2022-10-18T09:11:20.718Z,15.33
2022-10-18T09:14:10.864Z,16.50
2022-10-18T09:16:42.855Z,15.73
2022-10-18T09:19:17.097Z,15.80
2022-10-18T09:21:50.891Z,16.83
2022-10-18T09:24:21.470Z,16.83
2022-10-18T09:26:54.600Z,18.27
2022-10-18T09:29:45.167Z,17.47
2022-10-18T09:32:18.297Z,18.87
2022-10-18T09:34:50.617Z,19.57
2022-10-18T09:37:19.635Z,20.10
2022-10-18T09:39:49.502Z,18.87
2022-10-18T09:42:26.800Z,19.27
2022-10-18T09:44:56.706Z,18.73
2022-10-18T09:47:27.663Z,19.10
2022-10-18T09:49:57.725Z,19.20
2022-10-18T09:52:29.156Z,20.27
2022-10-18T09:55:00.024Z,21.30
2022-10-18T09:57:33.310Z,22.97
2022-10-18T10:00:01.401Z,21.50
2022-10-18T10:02:29.090Z,22.63
2022-10-18T10:04:57.173Z,24.10
2022-10-18T10:07:29.789Z,24.80
2022-10-18T10:10:05.122Z,23.87
2022-10-18T10:12:35.394Z,22.43
2022-10-18T10:15:10.857Z,22.73
2022-10-18T10:17:38.577Z,22.03
2022-10-18T10:20:15.175Z,21.63
2022-10-18T10:22:43.436Z,21.00
2022-10-18T10:25:21.122Z,19.60
2022-10-18T10:27:50.341Z,19.07
2022-10-18T10:30:26.990Z,20.70
2022-10-18T10:32:55.179Z,20.33
2022-10-18T10:35:41.406Z,21.20
2022-10-18T10:38:23.290Z,21.23
2022-10-18T10:40:51.063Z,21.97
2022-10-18T10:43:39.623Z,24.00
2022-10-18T10:46:10.124Z,26.97
2022-10-18T10:48:41.990Z,20.93
2022-10-18T10:51:10.919Z,20.60
2022-10-18T10:53:44.088Z,22.43
2022-10-18T10:56:29.455Z,24.97
2022-10-18T10:59:01.291Z,23.03
2022-10-18T11:01:31.027Z,20.63
2022-10-18T11:03:59.714Z,21.80
2022-10-18T11:06:46.474Z,24.10
2022-10-18T11:09:25.366Z,25.27
2022-10-18T11:11:57.845Z,22.90
2022-10-18T11:14:28.055Z,26.90
2022-10-18T11:17:02.079Z,26.07
2022-10-18T11:19:35.285Z,24.40
2022-10-18T11:22:05.409Z,26.73
2022-10-18T11:24:33.059Z,25.50
2022-10-18T11:27:03.955Z,24.60
2022-10-18T11:29:40.851Z,25.20
2022-10-18T11:32:13.025Z,23.80
2022-10-18T11:34:54.479Z,24.10
2022-10-18T11:37:39.429Z,25.10
2022-10-18T11:40:15.198Z,25.87
2022-10-18T11:42:46.870Z,26.13
2022-10-18T11:45:23.917Z,29.00
2022-10-18T11:47:56.036Z,25.70
2022-10-18T11:50:29.364Z,27.17
2022-10-18T11:53:00.246Z,25.40
2022-10-18T11:55:33.227Z,24.63
2022-10-18T11:58:04.846Z,23.70
2022-10-18T12:00:44.757Z,25.20
2022-10-18T12:03:20.008Z,24.40
2022-10-18T12:05:49.304Z,26.13
2022-10-18T12:08:18.334Z,26.97
2022-10-18T12:11:04.547Z,24.47
2022-10-18T12:13:35.306Z,25.03
2022-10-18T12:18:56.606Z,25.20
2022-10-18T12:21:26.331Z,24.70
2022-10-18T12:23:56.242Z,27.07
2022-10-18T12:26:24.658Z,25.73
2022-10-18T12:28:57.944Z,25.50
2022-10-18T12:31:29.960Z,23.70
2022-10-18T12:33:59.553Z,22.63
2022-10-18T12:36:35.947Z,23.33
2022-10-18T12:39:06.185Z,25.80
2022-10-18T12:41:34.965Z,25.73
2022-10-18T12:44:05.186Z,23.50
2022-10-18T12:46:47.748Z,23.33
2022-10-18T12:49:18.752Z,24.93
2022-10-18T12:51:51.682Z,24.50
2022-10-18T12:54:21.708Z,26.03
2022-10-18T12:56:50.791Z,29.33
2022-10-18T12:59:51.999Z,25.17
2022-10-18T13:02:22.370Z,22.60
2022-10-18T13:04:50.246Z,25.80
2022-10-18T13:10:39.572Z,26.10
2022-10-18T13:13:39.253Z,22.60
2022-10-18T13:16:11.524Z,22.63
2022-10-18T13:18:45.115Z,23.37
2022-10-18T13:21:17.403Z,23.37
2022-10-18T13:23:50.716Z,24.20
2022-10-18T13:26:24.732Z,20.93
2022-10-18T13:28:56.658Z,25.30
2022-10-18T13:31:26.924Z,21.30
2022-10-18T13:33:56.022Z,22.03
2022-10-18T13:36:25.786Z,21.00
2022-10-18T13:39:02.016Z,20.90
2022-10-18T13:41:32.864Z,20.17
2022-10-18T13:44:26.227Z,20.27
2022-10-18T13:47:11.679Z,21.60
2022-10-18T13:49:47.178Z,21.20
2022-10-18T13:52:18.925Z,20.17
2022-10-18T13:55:01.532Z,19.40
2022-10-18T13:57:41.511Z,33.53
2022-10-18T14:00:16.872Z,37.37
2022-10-18T14:02:59.741Z,38.30
2022-10-18T14:05:44.374Z,34.70
2022-10-18T14:08:13.764Z,17.17
2022-10-18T14:11:00.857Z,16.83
2022-10-18T14:13:35.069Z,16.30
2022-10-18T14:16:06.823Z,15.87
2022-10-18T14:18:36.001Z,15.50
2022-10-18T14:21:13.748Z,14.83
2022-10-18T14:23:44.758Z,14.93
2022-10-18T14:26:14.824Z,14.10
2022-10-18T14:28:59.122Z,14.10
2022-10-18T14:31:28.405Z,14.03
2022-10-18T14:33:58.372Z,15.10
2022-10-18T14:36:30.297Z,15.40
2022-10-18T14:38:58.894Z,15.67
2022-10-18T14:41:26.929Z,14.97
2022-10-18T14:44:10.586Z,15.20
2022-10-18T14:46:42.847Z,15.77
2022-10-18T14:49:11.718Z,16.30
2022-10-18T14:51:41.717Z,16.17
2022-10-18T14:56:46.974Z,14.63
2022-10-18T14:59:18.449Z,13.67
2022-10-18T15:01:52.414Z,13.90
2022-10-18T15:04:22.655Z,12.90
2022-10-18T15:06:55.174Z,13.10
2022-10-18T15:09:24.266Z,12.63
2022-10-18T15:11:54.683Z,12.30
2022-10-18T15:14:22.742Z,12.73
2022-10-18T15:16:52.241Z,12.73
2022-10-18T15:19:27.698Z,12.37
2022-10-18T15:22:19.703Z,13.00
2022-10-18T15:24:45.643Z,14.37
2022-10-18T15:27:15.175Z,13.87
2022-10-18T15:29:43.728Z,14.60
2022-10-18T15:32:16.880Z,14.93
2022-10-18T15:34:44.463Z,14.43
2022-10-18T15:37:29.184Z,13.67
2022-10-18T15:40:11.711Z,14.83
2022-10-18T15:42:39.371Z,14.60
2022-10-18T15:45:22.062Z,15.90
2022-10-18T15:47:58.653Z,14.77
2022-10-18T15:50:36.760Z,17.63
2022-10-18T15:53:23.754Z,15.60
2022-10-18T15:55:52.261Z,14.80
2022-10-18T15:58:21.839Z,15.73
2022-10-18T16:00:50.557Z,15.13
2022-10-18T16:03:19.054Z,15.30
2022-10-18T16:05:46.794Z,16.97
2022-10-18T16:08:21.686Z,16.33
2022-10-18T16:10:49.365Z,15.90
2022-10-18T16:13:16.795Z,16.00
2022-10-18T16:15:44.849Z,16.93
2022-10-18T16:18:14.527Z,16.73
2022-10-18T16:20:42.047Z,17.23
2022-10-18T16:23:21.989Z,16.77
2022-10-18T16:25:49.936Z,18.47
2022-10-18T16:28:18.265Z,19.03
2022-10-18T16:30:47.793Z,19.83
2022-10-18T16:33:19.216Z,20.90
2022-10-18T16:35:49.725Z,21.70
2022-10-18T16:38:25.046Z,20.20
2022-10-18T16:40:53.206Z,21.20
2022-10-18T16:43:20.715Z,21.43
2022-10-18T16:45:48.625Z,22.10
2022-10-18T16:48:17.113Z,24.20
2022-10-18T16:50:45.000Z,20.97
2022-10-18T16:53:12.755Z,21.40
2022-10-18T16:55:42.439Z,23.30
2022-10-18T16:58:14.634Z,22.30
2022-10-18T17:00:42.662Z,26.07
2022-10-18T17:03:10.235Z,31.87
2022-10-18T17:05:37.819Z,29.77
2022-10-18T17:08:05.678Z,34.10
2022-10-18T17:10:33.213Z,42.23
2022-10-18T17:13:02.075Z,44.73
2022-10-18T17:15:32.828Z,34.00
2022-10-18T17:18:03.902Z,28.87
2022-10-18T17:20:31.523Z,24.47
2022-10-18T17:22:59.131Z,39.20
2022-10-18T17:25:26.711Z,43.77
2022-10-18T17:27:54.587Z,27.73
2022-10-18T17:30:23.378Z,22.00
2022-10-18T17:32:50.934Z,23.00
2022-10-18T17:35:18.843Z,40.77
2022-10-18T17:37:48.283Z,24.73
2022-10-18T17:40:15.763Z,31.60
2022-10-18T17:42:43.474Z,25.10
2022-10-18T17:45:12.268Z,30.87
2022-10-18T17:47:41.076Z,30.83
2022-10-18T17:50:09.850Z,38.27
2022-10-18T17:52:41.180Z,25.80
2022-10-18T17:55:10.074Z,34.27
2022-10-18T17:57:37.890Z,29.00
2022-10-18T18:00:06.062Z,28.90
2022-10-18T18:02:41.913Z,28.37
2022-10-18T18:05:10.270Z,27.47
2022-10-18T18:07:37.856Z,28.60
2022-10-18T18:10:05.712Z,24.30
2022-10-18T18:12:33.484Z,24.60
2022-10-18T18:15:01.409Z,27.20
2022-10-18T18:17:34.440Z,25.57
2022-10-18T18:20:09.756Z,24.97
2022-10-18T18:22:41.653Z,23.50
2022-10-18T18:25:10.686Z,24.57
2022-10-18T18:27:38.996Z,22.43
2022-10-18T18:30:07.334Z,24.37
2022-10-18T18:32:37.645Z,22.10
2022-10-18T18:35:05.709Z,22.23
2022-10-18T18:37:34.558Z,22.07
2022-10-18T18:40:02.054Z,21.53
2022-10-18T18:42:31.720Z,22.23
2022-10-18T18:44:59.372Z,22.80
2022-10-18T18:47:27.954Z,21.63
2022-10-18T18:49:55.814Z,21.63
2022-10-18T18:52:23.490Z,21.67
2022-10-18T18:54:52.286Z,20.70
2022-10-18T18:57:21.994Z,21.93
2022-10-18T18:59:50.273Z,19.53
2022-10-18T19:02:17.699Z,21.53
2022-10-18T19:04:45.399Z,22.27
2022-10-18T19:07:12.841Z,19.37
2022-10-18T19:09:42.271Z,20.10
2022-10-18T19:12:11.327Z,26.07
2022-10-18T19:14:38.793Z,24.03
2022-10-18T19:17:07.851Z,27.73
2022-10-18T19:19:36.308Z,28.27
2022-10-18T19:22:04.963Z,24.60
2022-10-18T19:24:32.548Z,22.30
2022-10-18T19:27:01.050Z,22.93
2022-10-18T19:29:30.911Z,25.10
2022-10-18T19:32:00.103Z,26.00
2022-10-18T19:34:28.503Z,26.00
2022-10-18T19:36:56.486Z,16.23
2022-10-18T19:39:24.711Z,15.87
2022-10-18T19:41:53.022Z,21.63
2022-10-18T19:44:21.142Z,14.70
2022-10-18T19:46:50.642Z,17.10
2022-10-18T19:49:18.266Z,15.50
2022-10-18T19:51:45.867Z,13.30
2022-10-18T19:54:14.735Z,12.07
2022-10-18T19:56:42.708Z,12.07
2022-10-18T19:59:10.671Z,11.30
2022-10-18T20:01:38.529Z,11.63
2022-10-18T20:04:08.790Z,12.83
2022-10-18T20:06:37.018Z,12.10
2022-10-18T20:09:05.143Z,16.67
2022-10-18T20:11:32.760Z,17.63
2022-10-18T20:14:00.506Z,23.43
2022-10-18T20:16:28.960Z,13.93
2022-10-18T20:18:57.494Z,11.03
2022-10-18T20:21:27.355Z,15.47
2022-10-18T20:23:55.501Z,17.70
2022-10-18T20:26:23.417Z,14.40
2022-10-18T20:28:56.471Z,11.13
2022-10-18T20:31:25.144Z,19.57
2022-10-18T20:33:54.761Z,13.60
2022-10-18T20:36:22.991Z,17.27
2022-10-18T20:38:53.003Z,15.97
2022-10-18T20:41:22.006Z,15.80
2022-10-18T20:43:51.500Z,19.70
2022-10-18T20:46:19.267Z,17.10
2022-10-18T20:48:49.496Z,11.47
2022-10-18T20:51:17.212Z,18.20
2022-10-18T20:53:44.944Z,13.30
2022-10-18T20:56:14.672Z,18.60
2022-10-18T20:58:44.080Z,21.03
2022-10-18T21:01:13.550Z,20.43
2022-10-18T21:03:42.021Z,26.00
2022-10-18T21:06:10.306Z,11.33
2022-10-18T21:08:37.918Z,13.00
2022-10-18T21:11:05.576Z,14.80
2022-10-18T21:13:34.517Z,15.90
2022-10-18T21:16:02.968Z,11.83
2022-10-18T21:18:32.876Z,9.23
2022-10-18T21:21:07.836Z,16.80
2022-10-18T21:23:35.411Z,14.07
2022-10-18T21:26:02.875Z,14.50
2022-10-18T21:28:30.740Z,12.83
2022-10-18T21:31:09.669Z,11.87
2022-10-18T21:33:37.637Z,13.20
2022-10-18T21:36:05.418Z,12.07
2022-10-18T21:38:33.253Z,8.20
2022-10-18T21:41:00.767Z,15.40
2022-10-18T21:43:28.629Z,11.27
2022-10-18T21:45:59.897Z,13.60
2022-10-18T21:48:28.821Z,12.70
2022-10-18T21:50:56.309Z,10.70
2022-10-18T21:53:24.291Z,14.00
2022-10-18T21:55:51.747Z,6.50
2022-10-18T21:58:19.612Z,11.90
2022-10-18T22:00:47.125Z,13.07
2022-10-18T22:03:14.905Z,11.27
2022-10-18T22:05:43.739Z,8.90
2022-10-18T22:08:11.288Z,8.03
2022-10-18T22:10:39.045Z,8.10
2022-10-18T22:13:07.024Z,9.53
2022-10-18T22:15:34.645Z,7.20
2022-10-18T22:18:02.234Z,10.20
2022-10-18T22:20:29.880Z,9.23
2022-10-18T22:22:58.840Z,8.20
2022-10-18T22:25:27.634Z,7.97
2022-10-18T22:27:55.586Z,8.07
2022-10-18T22:30:23.067Z,8.90
2022-10-18T22:32:50.605Z,10.67
2022-10-18T22:35:20.738Z,7.93
2022-10-18T22:37:48.300Z,6.33
2022-10-18T22:40:17.156Z,7.03
2022-10-18T22:42:45.474Z,7.77
2022-10-18T22:45:14.484Z,4.50
2022-10-18T22:47:42.154Z,7.73
2022-10-18T22:50:10.239Z,5.77
2022-10-18T22:52:38.020Z,6.17
2022-10-18T22:55:08.363Z,6.60
2022-10-18T22:57:37.695Z,6.50
2022-10-18T23:00:05.760Z,4.97
2022-10-18T23:02:33.742Z,4.77
2022-10-18T23:05:01.934Z,5.90
2022-10-18T23:07:29.709Z,6.70
2022-10-18T23:09:57.250Z,5.90
2022-10-18T23:12:24.917Z,4.50
2022-10-18T23:14:53.855Z,5.70
2022-10-18T23:17:21.577Z,5.00
2022-10-18T23:19:49.439Z,6.53
2022-10-18T23:22:21.121Z,5.43
2022-10-18T23:24:48.870Z,4.30
2022-10-18T23:27:16.880Z,4.43
2022-10-18T23:29:44.471Z,5.10
2022-10-18T23:32:13.384Z,3.87
2022-10-18T23:34:41.415Z,4.53
2022-10-18T23:37:08.930Z,4.70
2022-10-18T23:39:36.453Z,6.23
2022-10-18T23:42:04.096Z,5.63
2022-10-18T23:44:31.641Z,4.97
2022-10-18T23:46:59.151Z,4.87
2022-10-18T23:49:28.302Z,4.30
2022-10-18T23:51:55.954Z,4.57
2022-10-18T23:54:23.680Z,4.70
2022-10-18T23:56:51.288Z,4.60
2022-10-18T23:59:18.860Z,4.33
